Time;durP1;ratioP1;P1;durP2;ratioP2;P2;SDS_P1;SDS_P2;PMS_P1;PMS_P2;Temp;Humidity;BMP_temperature;BMP_pressure;BME280_temperature;BME280_humidity;BME280_pressure;Samples;Min_cycle;Max_cycle;Signal;HPM_P1;HPM_P2
2023/09/22 00:00:14;;;;;;;1.43;0.60;;;;;;;16.68;100.00;95626.25;4933271;28;20584;-59
2023/09/22 00:02:43;;;;;;;0.30;0.30;;;;;;;16.73;100.00;95647.66;4937321;28;20215;-59
2023/09/22 00:05:12;;;;;;;0.90;0.60;;;;;;;16.74;100.00;95648.47;4888367;28;20222;-61
2023/09/22 00:07:40;;;;;;;1.50;0.40;;;;;;;16.78;100.00;95666.41;4940436;28;20230;-56
2023/09/22 00:10:08;;;;;;;0.47;0.47;;;;;;;16.76;100.00;95668.53;4929731;28;20211;-60
2023/09/22 00:12:36;;;;;;;0.57;0.57;;;;;;;16.84;100.00;95679.78;4938424;28;20274;-62
2023/09/22 00:15:04;;;;;;;0.43;0.43;;;;;;;16.79;100.00;95699.31;4936714;28;20202;-61
2023/09/22 00:17:35;;;;;;;0.63;0.50;;;;;;;16.62;100.00;95715.53;4938949;28;20234;-62
2023/09/22 00:20:07;;;;;;;0.50;0.40;;;;;;;16.47;100.00;95717.03;4935311;28;20322;-62
2023/09/22 00:22:35;;;;;;;1.03;0.70;;;;;;;16.42;100.00;95717.00;4939277;28;20211;-60
2023/09/22 00:25:03;;;;;;;0.80;0.67;;;;;;;16.40;100.00;95716.44;4805922;28;20710;-59
2023/09/22 00:27:31;;;;;;;0.40;0.40;;;;;;;16.43;100.00;95713.25;4942952;28;20278;-60
2023/09/22 00:29:59;;;;;;;0.40;0.40;;;;;;;16.38;100.00;95712.44;4937423;28;20292;-61
2023/09/22 00:32:27;;;;;;;0.37;0.37;;;;;;;16.16;100.00;95732.88;4943029;28;20210;-61
2023/09/22 00:34:56;;;;;;;0.40;0.40;;;;;;;16.13;100.00;95730.72;4935606;28;20198;-60
2023/09/22 00:37:24;;;;;;;0.40;0.40;;;;;;;16.12;100.00;95729.09;4940100;28;20228;-60
2023/09/22 00:39:51;;;;;;;0.60;0.60;;;;;;;16.07;100.00;95721.03;4895377;28;20277;-61
2023/09/22 00:42:19;;;;;;;1.43;0.70;;;;;;;16.03;100.00;95709.25;4942905;28;20212;-61
2023/09/22 00:44:47;;;;;;;0.60;0.60;;;;;;;16.05;100.00;95693.75;4935159;28;20586;-62
2023/09/22 00:47:15;;;;;;;0.40;0.40;;;;;;;15.95;100.00;95699.03;4939594;28;20888;-62
2023/09/22 00:49:43;;;;;;;1.60;0.60;;;;;;;15.98;100.00;95691.31;4938976;28;20888;-60
2023/09/22 00:52:12;;;;;;;0.40;0.40;;;;;;;15.85;100.00;95697.84;4941542;28;20690;-61
2023/09/22 00:54:41;;;;;;;0.47;0.47;;;;;;;15.84;100.00;95708.78;4938760;28;20953;-58
2023/09/22 00:57:08;;;;;;;0.50;0.50;;;;;;;15.76;100.00;95705.53;4938776;28;20857;-59
2023/09/22 00:59:36;;;;;;;0.57;0.57;;;;;;;15.77;100.00;95690.31;4807520;28;20338;-61
2023/09/22 01:02:04;;;;;;;0.43;0.43;;;;;;;15.68;100.00;95699.81;4942687;28;20238;-61
2023/09/22 01:04:31;;;;;;;0.60;0.60;;;;;;;15.71;100.00;95704.66;4936784;28;20433;-60
2023/09/22 01:06:59;;;;;;;0.93;0.47;;;;;;;15.77;100.00;95709.78;4943597;28;20231;-61
2023/09/22 01:09:28;;;;;;;0.40;0.40;;;;;;;15.74;100.00;95707.63;4891179;28;20225;-60
2023/09/22 01:11:56;;;;;;;0.80;0.80;;;;;;;15.75;100.00;95698.56;4943305;28;20218;-59
2023/09/22 01:14:24;;;;;;;0.40;0.40;;;;;;;15.83;100.00;95704.50;4936928;28;20262;-60
2023/09/22 01:16:52;;;;;;;0.50;0.50;;;;;;;15.74;100.00;95706.84;4944291;28;20313;-60
2023/09/22 01:19:20;;;;;;;0.60;0.60;;;;;;;15.68;100.00;95714.00;4935901;28;20215;-60
2023/09/22 01:21:49;;;;;;;0.50;0.50;;;;;;;15.75;100.00;95709.25;4943612;28;20270;-58
2023/09/22 01:24:17;;;;;;;0.90;0.60;;;;;;;15.79;100.00;95704.22;4938267;28;20449;-60
2023/09/22 01:26:44;;;;;;;0.67;0.60;;;;;;;15.82;100.00;95700.22;4939583;28;20226;-57
2023/09/22 01:29:12;;;;;;;0.50;0.50;;;;;;;15.68;100.00;95687.28;4848409;28;21490;-58
2023/09/22 01:31:42;;;;;;;0.60;0.60;;;;;;;15.76;100.00;95700.19;4919793;28;20214;-60
2023/09/22 01:34:11;;;;;;;0.50;0.50;;;;;;;15.80;100.00;95697.00;4945645;28;20410;-60
2023/09/22 01:36:38;;;;;;;0.70;0.70;;;;;;;15.76;100.00;95699.38;4949159;28;20219;-60
2023/09/22 01:39:10;;;;;;;0.57;0.57;;;;;;;15.76;100.00;95702.06;4946845;28;20210;-61
2023/09/22 01:41:38;;;;;;;0.67;0.67;;;;;;;15.76;100.00;95710.06;4941042;28;20207;-59
2023/09/22 01:44:07;;;;;;;0.80;0.80;;;;;;;15.66;100.00;95704.63;4912427;28;20320;-59
2023/09/22 01:46:35;;;;;;;0.70;0.70;;;;;;;15.71;100.00;95712.66;4923413;28;20227;-57
2023/09/22 01:49:02;;;;;;;0.77;0.73;;;;;;;15.57;100.00;95710.41;4938270;28;20306;-58
2023/09/22 01:51:30;;;;;;;1.67;0.80;;;;;;;15.55;100.00;95720.53;4939487;28;21039;-59
2023/09/22 01:53:58;;;;;;;0.53;0.53;;;;;;;15.63;100.00;95725.41;4941468;28;20217;-61
2023/09/22 01:56:26;;;;;;;0.83;0.83;;;;;;;15.66;100.00;95715.28;4939734;28;20314;-58
2023/09/22 01:58:54;;;;;;;0.77;0.50;;;;;;;15.66;100.00;95699.28;4896410;28;20210;-59
2023/09/22 02:01:25;;;;;;;1.53;0.60;;;;;;;15.55;100.00;95691.19;4877346;28;20980;-58
2023/09/22 02:03:53;;;;;;;0.50;0.50;;;;;;;15.51;100.00;95698.06;4937242;28;20207;-59
2023/09/22 02:06:21;;;;;;;0.80;0.60;;;;;;;15.56;100.00;95708.81;4937617;28;20227;-60
2023/09/22 02:08:49;;;;;;;1.30;0.63;;;;;;;15.60;100.00;95712.56;4936382;28;20215;-60
2023/09/22 02:11:17;;;;;;;0.97;0.67;;;;;;;15.61;100.00;95706.19;4934129;28;20222;-60
2023/09/22 02:13:47;;;;;;;2.27;0.90;;;;;;;15.67;100.00;95703.56;4938404;28;20203;-59
2023/09/22 02:16:16;;;;;;;0.47;0.47;;;;;;;15.66;100.00;95700.09;4934883;28;20250;-61
2023/09/22 02:18:44;;;;;;;1.53;0.60;;;;;;;15.65;100.00;95690.47;4939231;28;20210;-60
2023/09/22 02:21:13;;;;;;;1.27;0.70;;;;;;;15.63;100.00;95696.06;4885571;28;20691;-60
2023/09/22 02:23:40;;;;;;;0.60;0.60;;;;;;;15.60;100.00;95685.88;4876028;28;20230;-59
2023/09/22 02:26:09;;;;;;;1.53;0.73;;;;;;;15.63;100.00;95673.91;4938066;28;20239;-58
2023/09/22 02:28:37;;;;;;;0.70;0.70;;;;;;;15.54;100.00;95662.88;4933591;28;20214;-60
2023/09/22 02:31:06;;;;;;;0.90;0.53;;;;;;;15.43;100.00;95669.97;4940280;28;20226;-61
2023/09/22 02:33:34;;;;;;;0.60;0.60;;;;;;;15.42;100.00;95664.91;4828430;28;20782;-59
2023/09/22 02:36:05;;;;;;;0.70;0.70;;;;;;;15.37;100.00;95673.66;4939068;28;20719;-57
2023/09/22 02:38:33;;;;;;;0.60;0.60;;;;;;;15.33;100.00;95699.22;4935352;28;20207;-62
2023/09/22 02:41:00;;;;;;;1.00;0.90;;;;;;;15.31;100.00;95704.81;4938861;28;20238;-59
2023/09/22 02:43:28;;;;;;;0.80;0.80;;;;;;;15.30;100.00;95705.84;4937036;28;20214;-58
2023/09/22 02:45:56;;;;;;;0.90;0.90;;;;;;;15.27;100.00;95711.69;4936380;28;20663;-60
2023/09/22 02:48:25;;;;;;;0.90;0.90;;;;;;;15.30;100.00;95705.84;4872808;28;20354;-57
2023/09/22 02:50:53;;;;;;;1.23;1.17;;;;;;;15.32;100.00;95711.75;4938811;28;20199;-61
2023/09/22 02:53:21;;;;;;;0.90;0.90;;;;;;;15.31;100.00;95710.13;4883948;28;20256;-59
2023/09/22 02:55:48;;;;;;;0.70;0.70;;;;;;;15.24;100.00;95714.88;4938766;28;20234;-60
2023/09/22 02:58:16;;;;;;;0.70;0.70;;;;;;;15.20;100.00;95708.41;4935482;28;20262;-61
2023/09/22 03:00:44;;;;;;;0.60;0.60;;;;;;;15.15;100.00;95706.53;4940536;28;20270;-61
2023/09/22 03:03:13;;;;;;;2.37;1.07;;;;;;;15.11;100.00;95718.72;4935441;28;20266;-61
2023/09/22 03:05:42;;;;;;;0.80;0.80;;;;;;;15.04;100.00;95726.09;4937420;28;20199;-60
2023/09/22 03:08:09;;;;;;;0.60;0.60;;;;;;;15.04;100.00;95734.09;4804911;28;20223;-59
2023/09/22 03:10:39;;;;;;;0.60;0.60;;;;;;;15.05;100.00;95739.22;4939411;28;20230;-61
2023/09/22 03:13:06;;;;;;;0.63;0.63;;;;;;;15.13;100.00;95750.50;4880153;28;20206;-60
2023/09/22 03:15:35;;;;;;;1.00;0.70;;;;;;;15.15;100.00;95759.88;4935818;28;20242;-61
2023/09/22 03:18:04;;;;;;;0.53;0.53;;;;;;;15.19;100.00;95757.50;4936347;28;20203;-58
2023/09/22 03:20:31;;;;;;;1.03;0.80;;;;;;;15.23;100.00;95761.28;4936631;28;20210;-58
2023/09/22 03:23:00;;;;;;;0.83;0.70;;;;;;;15.24;100.00;95765.56;4888271;28;20207;-58
2023/09/22 03:25:28;;;;;;;0.60;0.60;;;;;;;15.21;100.00;95759.94;4939360;28;20211;-60
2023/09/22 03:27:56;;;;;;;0.60;0.60;;;;;;;15.20;100.00;95753.78;4932609;28;20246;-58
2023/09/22 03:30:23;;;;;;;0.40;0.40;;;;;;;15.22;100.00;95750.88;4937184;28;20271;-54
2023/09/22 03:32:52;;;;;;;0.60;0.60;;;;;;;15.16;100.00;95745.47;4934438;28;20598;-59
2023/09/22 03:35:21;;;;;;;0.70;0.70;;;;;;;15.16;100.00;95740.16;4936935;28;20217;-60
2023/09/22 03:37:49;;;;;;;0.60;0.60;;;;;;;14.89;100.00;95735.53;4906127;28;20236;-59
2023/09/22 03:40:24;;;;;;;1.03;0.70;;;;;;;14.97;100.00;95741.50;4937364;28;20207;-59
2023/09/22 03:42:52;;;;;;;1.10;1.00;;;;;;;14.92;100.00;95744.09;4835833;28;20725;-61
2023/09/22 03:45:19;;;;;;;0.60;0.60;;;;;;;14.94;100.00;95750.00;4939270;28;20737;-61
2023/09/22 03:47:47;;;;;;;1.43;0.80;;;;;;;14.99;100.00;95748.22;4872550;28;20227;-59
2023/09/22 03:50:15;;;;;;;1.00;0.90;;;;;;;15.10;100.00;95754.44;4896598;28;20593;-61
2023/09/22 03:52:43;;;;;;;0.90;0.70;;;;;;;15.14;100.00;95760.91;4914547;28;20240;-61
2023/09/22 03:55:12;;;;;;;0.60;0.60;;;;;;;15.15;100.00;95759.06;4914901;28;20254;-57
2023/09/22 03:57:41;;;;;;;1.07;1.07;;;;;;;15.20;100.00;95751.09;4909811;28;20731;-60
2023/09/22 04:00:17;;;;;;;0.50;0.50;;;;;;;15.17;100.00;95748.94;4933545;28;20297;-60
2023/09/22 04:02:46;;;;;;;0.80;0.80;;;;;;;15.08;100.00;95742.44;4933382;28;20274;-61
2023/09/22 04:05:14;;;;;;;1.23;1.13;;;;;;;15.08;100.00;95758.44;4935006;28;20365;-61
2023/09/22 04:07:41;;;;;;;1.10;1.00;;;;;;;15.11;100.00;95768.63;4935338;28;20234;-59
2023/09/22 04:10:10;;;;;;;0.73;0.73;;;;;;;15.00;100.00;95768.50;4906817;28;20663;-60
2023/09/22 04:12:38;;;;;;;0.63;0.63;;;;;;;14.98;100.00;95749.25;4905797;28;20251;-60
2023/09/22 04:15:09;;;;;;;0.50;0.50;;;;;;;14.73;100.00;95747.03;4904184;28;20218;-60
2023/09/22 04:17:42;;;;;;;0.80;0.80;;;;;;;14.70;100.00;95743.03;4885376;28;20733;-61
2023/09/22 04:20:12;;;;;;;0.90;0.90;;;;;;;14.71;100.00;95749.16;4937789;28;20745;-62
2023/09/22 04:22:43;;;;;;;0.40;0.40;;;;;;;14.55;100.00;95762.25;4936291;28;20207;-62
2023/09/22 04:25:18;;;;;;;0.80;0.80;;;;;;;14.65;100.00;95748.25;4918460;28;20258;-58
2023/09/22 04:27:53;;;;;;;0.97;0.97;;;;;;;14.70;100.00;95744.84;4917909;28;20241;-61
2023/09/22 04:30:23;;;;;;;1.33;1.23;;;;;;;14.80;100.00;95742.38;4935910;28;20217;-60
2023/09/22 04:32:53;;;;;;;0.73;0.73;;;;;;;14.59;100.00;95752.69;4939424;28;20203;-60
2023/09/22 04:35:21;;;;;;;1.40;1.30;;;;;;;14.70;100.00;95760.84;4937600;28;20594;-62
2023/09/22 04:37:50;;;;;;;0.70;0.70;;;;;;;14.69;100.00;95761.88;4937534;28;20223;-62
2023/09/22 04:40:24;;;;;;;1.30;1.20;;;;;;;14.73;100.00;95757.69;4936463;28;20198;-62
2023/09/22 04:42:53;;;;;;;1.47;1.37;;;;;;;14.83;100.00;95768.53;4939600;28;20238;-60
2023/09/22 04:45:23;;;;;;;0.80;0.80;;;;;;;14.78;100.00;95754.31;4870201;28;21037;-59
2023/09/22 04:47:52;;;;;;;1.40;1.30;;;;;;;14.80;100.00;95776.19;4908819;28;20845;-58
2023/09/22 04:50:21;;;;;;;1.00;1.00;;;;;;;14.79;100.00;95780.75;4873725;28;20218;-62
2023/09/22 04:52:50;;;;;;;0.63;0.63;;;;;;;14.83;100.00;95773.88;4938439;28;20857;-59
2023/09/22 04:55:19;;;;;;;1.50;1.20;;;;;;;14.76;100.00;95787.34;4934860;28;20210;-59
2023/09/22 04:57:47;;;;;;;1.00;1.00;;;;;;;14.80;100.00;95794.88;4937606;28;20219;-61
2023/09/22 05:00:16;;;;;;;1.40;1.07;;;;;;;14.69;100.00;95804.53;4886996;28;20212;-59
2023/09/22 05:02:46;;;;;;;1.37;0.97;;;;;;;14.70;100.00;95812.34;4933778;28;20211;-60
2023/09/22 05:05:16;;;;;;;0.80;0.80;;;;;;;14.76;100.00;95832.69;4935693;28;20219;-61
2023/09/22 05:07:44;;;;;;;1.70;0.97;;;;;;;14.60;100.00;95849.47;4938242;28;20322;-59
2023/09/22 05:10:12;;;;;;;0.90;0.90;;;;;;;14.51;100.00;95840.25;4938532;28;20263;-61
2023/09/22 05:12:40;;;;;;;0.93;0.67;;;;;;;14.36;100.00;95854.94;4940051;28;20384;-60
2023/09/22 05:15:09;;;;;;;0.83;0.83;;;;;;;14.42;100.00;95847.84;4937730;28;20290;-61
2023/09/22 05:17:37;;;;;;;2.37;0.90;;;;;;;14.40;100.00;95858.72;4828579;28;22206;-59
2023/09/22 05:20:12;;;;;;;0.90;0.90;;;;;;;14.55;100.00;95868.03;4945034;28;20207;-60
2023/09/22 05:22:40;;;;;;;1.30;1.30;;;;;;;14.62;100.00;95884.69;4933369;28;20672;-62
2023/09/22 05:25:08;;;;;;;1.83;1.10;;;;;;;14.67;100.00;95886.59;4941366;28;20225;-60
2023/09/22 05:27:36;;;;;;;1.53;1.40;;;;;;;14.60;100.00;95878.78;4935046;28;20795;-62
2023/09/22 05:30:06;;;;;;;0.90;0.90;;;;;;;14.61;100.00;95891.84;4942676;28;20215;-60
2023/09/22 05:32:34;;;;;;;0.80;0.80;;;;;;;14.60;100.00;95892.91;4886170;28;20293;-57
2023/09/22 05:35:02;;;;;;;1.50;1.33;;;;;;;14.55;100.00;95878.69;4939718;28;20575;-59
2023/09/22 05:37:32;;;;;;;0.97;0.93;;;;;;;14.58;100.00;95880.84;4940093;28;20326;-61
2023/09/22 05:40:01;;;;;;;0.67;0.67;;;;;;;14.52;100.00;95880.00;4939817;28;20807;-58
2023/09/22 05:42:29;;;;;;;1.20;1.10;;;;;;;14.52;100.00;95877.31;4936879;28;20243;-59
2023/09/22 05:44:56;;;;;;;2.33;2.23;;;;;;;14.53;100.00;95878.94;4941240;28;20812;-60
2023/09/22 05:47:25;;;;;;;1.30;1.20;;;;;;;14.51;100.00;95880.22;4937793;28;20222;-60
2023/09/22 05:49:52;;;;;;;1.37;1.03;;;;;;;14.53;100.00;95878.94;4940116;28;20236;-59
2023/09/22 05:52:20;;;;;;;1.80;1.23;;;;;;;14.51;100.00;95877.53;4846123;28;20842;-58
2023/09/22 05:54:49;;;;;;;1.33;1.23;;;;;;;14.51;100.00;95886.38;4942419;28;20223;-59
2023/09/22 05:57:17;;;;;;;0.73;0.70;;;;;;;14.32;100.00;95885.78;4938749;28;20219;-59
2023/09/22 05:59:46;;;;;;;0.93;0.93;;;;;;;14.28;100.00;95882.78;4944011;28;20249;-59
2023/09/22 06:02:14;;;;;;;1.80;1.30;;;;;;;14.30;100.00;95882.53;4894294;28;21492;-60
2023/09/22 06:04:41;;;;;;;1.03;1.03;;;;;;;14.25;100.00;95877.13;4938419;28;20755;-60
2023/09/22 06:07:12;;;;;;;1.37;1.37;;;;;;;14.28;100.00;95874.78;4882520;28;20943;-59
2023/09/22 06:09:40;;;;;;;0.90;0.90;;;;;;;14.47;100.00;95864.72;4939948;28;20218;-60
2023/09/22 06:12:09;;;;;;;1.30;1.20;;;;;;;14.56;100.00;95869.63;4937116;28;20291;-59
2023/09/22 06:14:39;;;;;;;1.70;1.30;;;;;;;14.52;100.00;95874.66;4941817;28;20199;-62
2023/09/22 06:17:08;;;;;;;2.03;0.90;;;;;;;14.61;100.00;95880.41;4937437;28;20237;-59
2023/09/22 06:19:35;;;;;;;0.80;0.80;;;;;;;14.31;100.00;95884.16;4936099;28;20293;-61
2023/09/22 06:22:04;;;;;;;0.83;0.83;;;;;;;14.34;100.00;95897.00;4889055;28;20213;-61
2023/09/22 06:24:32;;;;;;;1.03;1.03;;;;;;;14.36;100.00;95902.91;4938005;28;20245;-62
2023/09/22 06:26:59;;;;;;;0.93;0.93;;;;;;;14.52;100.00;95914.63;4807853;28;21028;-62
2023/09/22 06:29:28;;;;;;;1.07;1.07;;;;;;;14.33;100.00;95914.03;4942968;28;20328;-60
2023/09/22 06:31:56;;;;;;;1.60;1.50;;;;;;;14.29;100.00;95923.56;4936710;28;20215;-61
2023/09/22 06:34:24;;;;;;;1.27;1.20;;;;;;;14.13;100.00;95925.13;4941552;28;20290;-63
2023/09/22 06:36:51;;;;;;;1.53;1.10;;;;;;;14.13;100.00;95920.59;4889787;28;20230;-59
2023/09/22 06:39:19;;;;;;;2.40;1.23;;;;;;;14.25;100.00;95925.09;4940303;28;20598;-59
2023/09/22 06:41:47;;;;;;;2.00;1.90;;;;;;;14.50;100.00;95931.91;4936351;28;20277;-60
2023/09/22 06:44:16;;;;;;;2.07;1.40;;;;;;;14.58;100.00;95932.31;4942020;28;20609;-62
2023/09/22 06:46:45;;;;;;;2.00;1.90;;;;;;;14.64;100.00;95932.41;4936375;28;20399;-61
2023/09/22 06:49:12;;;;;;;1.40;1.30;;;;;;;14.71;100.00;95928.56;4939008;28;20562;-59
2023/09/22 06:51:40;;;;;;;1.37;1.23;;;;;;;14.72;100.00;95924.03;4889108;28;20956;-59
2023/09/22 06:54:08;;;;;;;1.50;1.40;;;;;;;14.80;100.00;95922.84;4940443;28;20218;-59
2023/09/22 06:56:36;;;;;;;1.20;1.20;;;;;;;14.78;100.00;95920.44;4937423;28;20552;-59
2023/09/22 06:59:16;;;;;;;1.57;0.90;;;;;;;14.94;100.00;95918.78;4940132;28;20290;-58
2023/09/22 07:01:45;;;;;;;1.20;1.10;;;;;;;14.94;100.00;95918.78;4802473;28;21441;-61
2023/09/22 07:04:13;;;;;;;1.47;1.37;;;;;;;14.66;100.00;95912.47;4939769;28;20273;-61
2023/09/22 07:06:41;;;;;;;8.30;7.50;;;;;;;14.58;100.00;95915.50;4935564;28;20421;-58
2023/09/22 07:09:11;;;;;;;3.23;2.33;;;;;;;14.59;100.00;95907.28;4941765;28;20226;-59
2023/09/22 07:11:40;;;;;;;1.13;1.10;;;;;;;14.76;100.00;95923.31;4886345;28;21609;-60
2023/09/22 07:14:08;;;;;;;1.40;1.23;;;;;;;14.84;100.00;95927.47;4938070;28;20198;-61
2023/09/22 07:16:36;;;;;;;1.17;0.93;;;;;;;14.85;100.00;95923.75;4934027;28;20319;-61
2023/09/22 07:19:06;;;;;;;1.97;1.63;;;;;;;14.95;100.00;95930.28;4939634;28;20199;-61
2023/09/22 07:21:34;;;;;;;1.00;1.00;;;;;;;15.14;100.00;95941.50;4886489;28;20226;-61
2023/09/22 07:24:02;;;;;;;1.00;1.00;;;;;;;15.12;100.00;95944.41;4938433;28;21012;-62
2023/09/22 07:26:30;;;;;;;1.90;1.30;;;;;;;15.14;100.00;95952.97;4936790;28;20222;-62
2023/09/22 07:28:59;;;;;;;1.13;1.13;;;;;;;15.31;100.00;95946.84;4939128;28;20896;-61
2023/09/22 07:31:30;;;;;;;1.30;1.20;;;;;;;15.38;100.00;95950.13;4934618;28;20375;-60
2023/09/22 07:33:58;;;;;;;1.30;1.20;;;;;;;15.31;100.00;95960.97;4938644;28;20209;-60
2023/09/22 07:36:30;;;;;;;3.97;1.80;;;;;;;15.41;100.00;95957.66;4821584;28;21067;-60
2023/09/22 07:38:58;;;;;;;1.40;1.30;;;;;;;15.59;100.00;95950.44;4934220;28;20205;-58
2023/09/22 07:41:25;;;;;;;1.37;1.20;;;;;;;15.47;100.00;95951.31;4884404;28;20675;-60
2023/09/22 07:43:53;;;;;;;1.60;1.60;;;;;;;15.47;100.00;95956.66;4938855;28;20234;-59
2023/09/22 07:46:22;;;;;;;1.27;1.17;;;;;;;15.68;100.00;95948.13;4886960;28;20318;-60
2023/09/22 07:48:51;;;;;;;2.13;1.30;;;;;;;15.80;100.00;95951.50;4939161;28;20219;-60
2023/09/22 07:51:20;;;;;;;3.23;1.20;;;;;;;15.68;100.00;95956.97;4936678;28;20400;-59
2023/09/22 07:53:49;;;;;;;1.63;1.20;;;;;;;15.73;100.00;95957.03;4941557;28;20290;-61
2023/09/22 07:56:18;;;;;;;1.47;1.33;;;;;;;15.63;100.00;95963.03;4888559;28;20874;-60
2023/09/22 07:58:46;;;;;;;1.00;1.00;;;;;;;15.72;100.00;95967.94;4938570;28;20215;-59
2023/09/22 08:01:34;;;;;;;0.93;0.93;;;;;;;15.72;100.00;95970.59;4895159;28;20505;-60
2023/09/22 08:04:01;;;;;;;1.20;1.10;;;;;;;15.72;100.00;95965.25;4937602;28;20210;-60
2023/09/22 08:06:31;;;;;;;1.20;1.10;;;;;;;15.76;100.00;95969.09;4936174;28;20282;-58
2023/09/22 08:09:03;;;;;;;1.60;1.60;;;;;;;15.55;100.00;95979.47;4927168;28;20223;-60
2023/09/22 08:11:31;;;;;;;1.50;1.40;;;;;;;15.64;100.00;95985.19;4860679;28;20864;-62
2023/09/22 08:13:59;;;;;;;1.63;1.50;;;;;;;15.68;100.00;95989.00;4937337;28;20258;-63
2023/09/22 08:16:27;;;;;;;1.37;1.27;;;;;;;16.05;100.00;95980.44;4888962;28;20246;-61
2023/09/22 08:18:55;;;;;;;2.13;1.50;;;;;;;16.22;100.00;95976.88;4939142;28;20211;-62
2023/09/22 08:21:25;;;;;;;2.47;1.47;;;;;;;16.43;100.00;95982.44;4937909;28;20298;-62
2023/09/22 08:23:53;;;;;;;1.30;1.20;;;;;;;16.41;100.00;95987.25;4936180;28;20207;-61
2023/09/22 08:26:23;;;;;;;1.40;1.30;;;;;;;16.26;100.00;95994.00;4888704;28;20628;-59
2023/09/22 08:28:51;;;;;;;1.50;1.40;;;;;;;16.40;100.00;95991.75;4937009;28;20580;-60
2023/09/22 08:31:19;;;;;;;1.30;1.30;;;;;;;16.67;100.00;95998.19;4934841;28;20229;-58
2023/09/22 08:33:46;;;;;;;1.47;1.33;;;;;;;16.88;100.00;95994.66;4936094;28;20289;-60
2023/09/22 08:36:15;;;;;;;1.80;1.70;;;;;;;16.29;100.00;96000.75;4876184;28;20309;-60
2023/09/22 08:38:43;;;;;;;1.30;1.30;;;;;;;16.35;100.00;96013.09;4937306;28;20203;-61
2023/09/22 08:41:11;;;;;;;1.50;1.27;;;;;;;16.24;100.00;96019.38;4933272;28;20263;-60
2023/09/22 08:43:41;;;;;;;1.57;1.47;;;;;;;16.01;100.00;96011.38;4938870;28;20234;-60
2023/09/22 08:46:08;;;;;;;1.43;1.40;;;;;;;16.19;100.00;96020.13;4835227;28;20230;-61
2023/09/22 08:48:36;;;;;;;1.43;1.43;;;;;;;16.19;100.00;96018.28;4943697;28;20225;-60
2023/09/22 08:51:05;;;;;;;1.53;1.47;;;;;;;16.61;100.00;96013.38;4889496;28;20242;-60
2023/09/22 08:53:33;;;;;;;1.10;1.10;;;;;;;16.71;100.00;96013.50;4943731;28;20261;-61
2023/09/22 08:56:04;;;;;;;0.90;0.90;;;;;;;16.10;100.00;96010.94;4878897;28;20349;-60
2023/09/22 08:58:31;;;;;;;2.97;1.30;;;;;;;16.48;100.00;96012.72;4947133;28;20252;-60
2023/09/22 09:01:02;;;;;;;1.73;1.40;;;;;;;16.74;100.00;96004.97;4890292;28;20230;-59
2023/09/22 09:03:31;;;;;;;1.10;1.10;;;;;;;16.79;100.00;96004.22;4943025;28;20206;-60
2023/09/22 09:06:07;;;;;;;0.97;0.97;;;;;;;16.98;100.00;96007.34;4935102;28;20298;-60
2023/09/22 09:08:35;;;;;;;1.33;1.33;;;;;;;16.89;100.00;96009.66;4940223;28;20234;-61
2023/09/22 09:11:08;;;;;;;0.93;0.93;;;;;;;16.97;100.00;96005.72;4874544;28;20237;-57
2023/09/22 09:13:37;;;;;;;1.93;1.73;;;;;;;16.78;100.00;96005.28;4940902;28;20199;-59
2023/09/22 09:16:08;;;;;;;1.27;0.90;;;;;;;16.79;100.00;96010.34;4836209;28;20718;-60
2023/09/22 09:18:36;;;;;;;1.00;1.00;;;;;;;16.65;100.00;96006.47;4940754;28;20241;-63
2023/09/22 09:21:10;;;;;;;1.20;1.10;;;;;;;16.60;100.00;96007.22;4936473;28;20234;-62
2023/09/22 09:23:38;;;;;;;0.80;0.80;;;;;;;16.67;100.00;96007.03;4940704;28;20239;-62
2023/09/22 09:26:06;;;;;;;2.07;1.03;;;;;;;16.49;100.00;96017.03;4885745;28;20227;-62
2023/09/22 09:28:40;;;;;;;1.30;1.30;;;;;;;16.54;100.00;96016.25;4942197;28;20210;-59
2023/09/22 09:31:10;;;;;;;0.97;0.97;;;;;;;16.43;100.00;96020.66;4881090;28;20659;-61
2023/09/22 09:33:49;;;;;;;1.40;1.30;;;;;;;16.48;100.00;96019.94;4939927;28;20207;-60
2023/09/22 09:36:17;;;;;;;1.00;1.00;;;;;;;16.17;100.00;96022.22;4935800;28;20524;-60
2023/09/22 09:38:46;;;;;;;1.50;1.40;;;;;;;16.29;100.00;96030.13;4942503;28;20203;-61
2023/09/22 09:41:14;;;;;;;1.43;1.33;;;;;;;16.29;100.00;96035.47;4877103;28;20363;-61
2023/09/22 09:43:44;;;;;;;1.47;1.47;;;;;;;16.37;100.00;96032.38;4943885;28;20444;-60
2023/09/22 09:46:17;;;;;;;1.50;1.40;;;;;;;16.35;100.00;96035.31;4936501;28;20303;-59
2023/09/22 09:48:46;;;;;;;1.70;1.60;;;;;;;16.42;100.00;96027.06;4942763;28;20675;-59
2023/09/22 09:51:19;;;;;;;1.47;1.40;;;;;;;16.14;100.00;96030.75;4811116;28;20256;-61
2023/09/22 09:53:47;;;;;;;0.90;0.90;;;;;;;16.10;100.00;96033.13;4943058;28;20202;-59
2023/09/22 09:56:16;;;;;;;2.10;1.23;;;;;;;16.28;100.00;96026.63;4888346;28;20382;-59
2023/09/22 09:58:45;;;;;;;1.10;1.10;;;;;;;16.55;100.00;96038.47;4942214;28;20222;-60
2023/09/22 10:01:16;;;;;;;1.40;1.20;;;;;;;16.88;100.00;96034.78;4884005;28;20671;-58
2023/09/22 10:03:44;;;;;;;1.40;1.30;;;;;;;16.72;100.00;96025.78;4943173;28;20207;-59
2023/09/22 10:06:16;;;;;;;1.00;1.00;;;;;;;16.75;100.00;96027.19;4934277;28;20823;-61
2023/09/22 10:08:44;;;;;;;1.47;1.47;;;;;;;16.84;100.00;96028.31;4942636;28;20209;-58
2023/09/22 10:11:14;;;;;;;1.30;1.30;;;;;;;16.82;100.00;96041.16;4936524;28;20702;-61
2023/09/22 10:13:41;;;;;;;1.80;1.70;;;;;;;17.03;100.00;96038.69;4940798;28;20878;-59
2023/09/22 10:16:09;;;;;;;1.40;1.30;;;;;;;17.32;100.00;96033.88;4936207;28;20282;-59
2023/09/22 10:18:45;;;;;;;1.37;1.27;;;;;;;17.16;100.00;96032.13;4941089;28;20254;-60
2023/09/22 10:21:39;;;;;;;0.90;0.90;;;;;;;17.16;100.00;96027.59;4807415;28;20257;-60
2023/09/22 10:24:24;;;;;;;1.17;1.17;;;;;;;17.23;100.00;96029.25;4932076;28;20321;-61
2023/09/22 10:27:16;;;;;;;0.90;0.90;;;;;;;17.21;100.00;96027.63;4942481;28;20698;-58
2023/09/22 10:29:51;;;;;;;1.10;1.00;;;;;;;17.18;100.00;96022.78;4885558;28;20362;-59
2023/09/22 10:32:21;;;;;;;1.13;1.13;;;;;;;17.13;100.00;96013.91;4938367;28;20238;-58
2023/09/22 10:34:51;;;;;;;1.67;1.57;;;;;;;17.23;100.00;96010.50;4882327;28;21791;-66
2023/09/22 10:37:20;;;;;;;0.77;0.77;;;;;;;17.32;100.00;96009.78;4939841;28;20223;-60
2023/09/22 10:39:52;;;;;;;0.80;0.80;;;;;;;17.16;100.00;96014.22;4934282;28;20203;-60
2023/09/22 10:42:21;;;;;;;1.20;1.20;;;;;;;17.14;100.00;96024.38;4939132;28;20250;-60
2023/09/22 10:44:59;;;;;;;1.00;0.93;;;;;;;16.75;100.00;96029.84;4935801;28;20224;-61
2023/09/22 10:47:40;;;;;;;1.50;1.00;;;;;;;16.83;100.00;96028.56;4937403;28;20735;-57
2023/09/22 10:50:18;;;;;;;0.90;0.90;;;;;;;16.85;100.00;96021.09;4805624;28;20207;-58
2023/09/22 10:52:50;;;;;;;1.80;0.87;;;;;;;16.68;100.00;96022.00;4941121;28;20320;-59
2023/09/22 10:55:30;;;;;;;1.03;1.00;;;;;;;16.65;100.00;96019.84;4936995;28;20266;-60
2023/09/22 10:57:59;;;;;;;1.13;1.10;;;;;;;16.68;100.00;96021.22;4938026;28;20231;-59
2023/09/22 11:00:27;;;;;;;0.90;0.90;;;;;;;16.71;100.00;96021.50;4891590;28;20293;-62
2023/09/22 11:02:58;;;;;;;0.80;0.80;;;;;;;16.72;100.00;96025.78;4939224;28;20289;-61
2023/09/22 11:05:27;;;;;;;1.00;1.00;;;;;;;16.84;100.00;96022.16;4889060;28;20893;-62
2023/09/22 11:07:55;;;;;;;1.33;1.23;;;;;;;16.72;100.00;96022.34;4940069;28;20231;-60
2023/09/22 11:10:23;;;;;;;0.70;0.70;;;;;;;16.83;100.00;96020.53;4937616;28;20227;-59
2023/09/22 11:12:51;;;;;;;1.00;1.00;;;;;;;17.15;100.00;96027.81;4940680;28;20203;-58
2023/09/22 11:15:19;;;;;;;1.10;1.10;;;;;;;17.04;100.00;96022.41;4935262;28;20297;-58
2023/09/22 11:17:48;;;;;;;0.97;0.97;;;;;;;17.18;100.00;96012.09;4939846;28;20222;-61
2023/09/22 11:20:19;;;;;;;1.10;1.10;;;;;;;17.01;100.00;96022.91;4936924;28;20199;-61
2023/09/22 11:22:48;;;;;;;0.93;0.93;;;;;;;16.95;100.00;96031.09;4937430;28;20235;-58
2023/09/22 11:25:16;;;;;;;1.00;1.00;;;;;;;17.21;100.00;96027.63;4806587;28;20623;-61
2023/09/22 11:27:47;;;;;;;1.20;1.10;;;;;;;17.35;100.00;96021.84;4941223;28;20227;-61
2023/09/22 11:30:17;;;;;;;0.87;0.87;;;;;;;17.07;100.00;96021.09;4933962;28;20199;-60
2023/09/22 11:32:46;;;;;;;0.90;0.90;;;;;;;17.31;100.00;96018.88;4935914;28;20337;-60